Time;durP1;ratioP1;P1;durP2;ratioP2;P2;SDS_P1;SDS_P2;PMS_P1;PMS_P2;Temp;Humidity;BMP_temperature;BMP_pressure;BME280_temperature;BME280_humidity;BME280_pressure;Samples;Min_cycle;Max_cycle;Signal;HPM_P1;HPM_P2
2023/08/01 00:00:24;;;;;;;4.50;3.40;;;;;;;19.08;65.25;99663.60;104183;275;40178;-74
2023/08/01 00:03:18;;;;;;;4.10;3.10;;;;;;;19.09;65.53;99658.04;104046;275;38732;-74
2023/08/01 00:05:52;;;;;;;3.60;2.90;;;;;;;19.09;65.21;99662.34;104184;275;38509;-74
2023/08/01 00:08:26;;;;;;;6.20;3.20;;;;;;;19.08;65.33;99664.15;104150;275;38283;-75
2023/08/01 00:11:05;;;;;;;5.90;3.10;;;;;;;19.06;65.27;99660.92;104180;275;38232;-74
2023/08/01 00:13:40;;;;;;;4.40;3.10;;;;;;;19.05;65.38;99658.72;104052;275;39450;-73
2023/08/01 00:16:15;;;;;;;4.10;3.10;;;;;;;19.05;65.22;99655.70;104163;275;38412;-73
2023/08/01 00:18:50;;;;;;;3.80;3.00;;;;;;;19.05;65.15;99653.58;104145;275;38504;-72
2023/08/01 00:21:27;;;;;;;3.80;3.30;;;;;;;19.06;65.21;99651.22;104086;275;39406;-72
2023/08/01 00:24:08;;;;;;;4.90;3.40;;;;;;;19.06;65.05;99651.38;104116;275;39420;-72
2023/08/01 00:26:47;;;;;;;3.80;3.20;;;;;;;19.05;65.12;99650.39;104038;275;175693;-75
2023/08/01 00:29:21;;;;;;;5.10;3.20;;;;;;;19.04;65.11;99649.45;104129;275;38433;-76
2023/08/01 00:31:58;;;;;;;5.80;3.40;;;;;;;19.03;64.96;99651.00;104019;275;174924;-75
2023/08/01 00:34:39;;;;;;;5.80;3.70;;;;;;;19.02;65.14;99649.98;104008;275;39680;-74
2023/08/01 00:37:16;;;;;;;5.50;3.50;;;;;;;19.01;65.13;99644.55;104133;275;38228;-74
2023/08/01 00:39:51;;;;;;;6.40;4.00;;;;;;;19.02;65.24;99640.95;104019;275;39372;-74
2023/08/01 00:42:26;;;;;;;6.10;4.10;;;;;;;19.03;64.96;99640.14;104145;275;38419;-76
2023/08/01 00:45:00;;;;;;;4.30;3.90;;;;;;;19.02;64.96;99636.88;104165;275;38422;-75
2023/08/01 00:47:37;;;;;;;4.00;3.50;;;;;;;19.03;64.88;99634.89;104168;275;38404;-77
2023/08/01 00:50:13;;;;;;;4.80;3.70;;;;;;;19.02;65.05;99632.29;104024;275;38463;-72
2023/08/01 00:52:53;;;;;;;4.50;3.60;;;;;;;19.01;65.02;99627.82;104157;275;38377;-72
2023/08/01 00:55:32;;;;;;;5.00;3.30;;;;;;;18.99;64.84;99629.54;104071;275;38494;-75
2023/08/01 00:58:10;;;;;;;4.30;2.90;;;;;;;18.99;64.90;99621.98;104130;275;39863;-73
2023/08/01 01:00:48;;;;;;;4.60;3.20;;;;;;;19.00;64.83;99615.33;103522;275;900949;-72
2023/08/01 01:03:26;;;;;;;4.40;3.10;;;;;;;19.01;64.85;99606.96;104059;275;38227;-73
2023/08/01 01:06:17;;;;;;;3.90;3.10;;;;;;;19.02;64.68;99601.03;104165;275;38275;-75
2023/08/01 01:08:54;;;;;;;5.50;3.70;;;;;;;19.02;64.82;99597.97;104010;277;38284;-75
2023/08/01 01:11:29;;;;;;;3.60;3.10;;;;;;;19.03;64.64;99598.64;104140;275;38243;-75
2023/08/01 01:14:03;;;;;;;4.50;3.40;;;;;;;19.02;64.54;99597.33;104119;275;38219;-75
2023/08/01 01:16:37;;;;;;;3.90;3.40;;;;;;;19.00;64.49;99593.73;104131;264;38364;-72
2023/08/01 01:19:12;;;;;;;5.50;3.30;;;;;;;19.00;64.73;99593.26;104133;275;39657;-72
2023/08/01 01:22:18;;;;;;;3.60;2.90;;;;;;;18.98;64.71;99592.86;103988;275;38223;-73
2023/08/01 01:25:07;;;;;;;4.00;2.90;;;;;;;18.97;64.56;99589.95;104136;264;38428;-73
2023/08/01 01:27:45;;;;;;;5.10;3.10;;;;;;;18.97;64.63;99582.17;104099;275;38236;-73
2023/08/01 01:30:23;;;;;;;5.00;3.10;;;;;;;18.98;64.47;99579.82;104154;275;38481;-74
2023/08/01 01:32:58;;;;;;;4.70;3.20;;;;;;;18.98;64.47;99579.98;104089;275;38425;-72
2023/08/01 01:35:31;;;;;;;5.20;2.90;;;;;;;18.97;64.56;99571.23;104137;275;39523;-74
2023/08/01 01:38:05;;;;;;;3.90;2.90;;;;;;;18.95;64.63;99567.68;104139;275;38246;-75
2023/08/01 01:40:40;;;;;;;5.70;3.10;;;;;;;18.93;64.57;99562.21;104122;275;39452;-73
2023/08/01 01:43:14;;;;;;;4.60;2.90;;;;;;;18.92;64.63;99561.92;104143;275;39640;-73
2023/08/01 01:45:50;;;;;;;3.50;3.20;;;;;;;18.92;64.81;99555.45;104138;275;39394;-73
2023/08/01 01:48:25;;;;;;;3.80;2.90;;;;;;;18.92;64.63;99552.92;104088;275;38358;-73
2023/08/01 01:51:00;;;;;;;3.80;3.40;;;;;;;18.93;64.71;99551.25;104181;275;38520;-72
2023/08/01 01:53:41;;;;;;;4.40;3.00;;;;;;;18.93;64.61;99544.73;104121;275;39130;-72
2023/08/01 01:56:15;;;;;;;5.90;3.50;;;;;;;18.93;64.59;99542.63;104139;275;38236;-72
2023/08/01 01:58:49;;;;;;;4.70;3.30;;;;;;;18.92;64.56;99543.04;103842;275;174572;-72
2023/08/01 02:01:25;;;;;;;3.60;3.00;;;;;;;18.90;64.54;99537.33;104157;275;38246;-73
2023/08/01 02:04:02;;;;;;;5.10;3.00;;;;;;;18.90;64.76;99532.80;104111;309;38291;-74
2023/08/01 02:06:36;;;;;;;3.80;2.80;;;;;;;18.89;64.75;99528.59;104147;275;38299;-72
2023/08/01 02:09:11;;;;;;;3.90;3.10;;;;;;;18.89;64.59;99529.66;104023;275;39965;-73
2023/08/01 02:11:45;;;;;;;3.30;2.60;;;;;;;18.89;64.62;99527.95;104133;275;38450;-77
2023/08/01 02:14:22;;;;;;;4.50;3.10;;;;;;;18.87;64.46;99522.28;104129;275;38262;-75
2023/08/01 02:16:56;;;;;;;4.20;3.00;;;;;;;18.85;64.57;99517.86;104128;275;38369;-75
2023/08/01 02:19:38;;;;;;;3.60;3.20;;;;;;;18.83;64.53;99512.02;104104;275;38314;-75
2023/08/01 02:22:13;;;;;;;4.20;2.90;;;;;;;18.80;64.41;99511.75;104158;275;38653;-74
2023/08/01 02:24:50;;;;;;;4.00;3.10;;;;;;;18.77;64.49;99508.14;104110;275;39892;-74
2023/08/01 02:27:26;;;;;;;4.20;2.60;;;;;;;18.73;64.70;99503.66;104098;275;39643;-73
2023/08/01 02:30:00;;;;;;;3.90;3.10;;;;;;;18.70;64.78;99501.41;104170;275;39482;-74
2023/08/01 02:32:39;;;;;;;4.40;3.20;;;;;;;18.68;64.93;99494.37;103964;277;38381;-74
2023/08/01 02:35:16;;;;;;;4.10;3.10;;;;;;;18.66;64.96;99487.29;104176;264;38337;-74
2023/08/01 02:37:50;;;;;;;3.90;3.00;;;;;;;18.65;65.01;99485.03;104118;275;38382;-72
2023/08/01 02:40:26;;;;;;;3.50;2.80;;;;;;;18.64;65.14;99481.14;104132;275;38433;-76
2023/08/01 02:43:01;;;;;;;5.40;3.20;;;;;;;18.62;65.21;99477.05;104144;275;38623;-73
2023/08/01 02:45:36;;;;;;;3.50;3.20;;;;;;;18.60;65.20;99474.90;103913;275;39696;-74
2023/08/01 02:48:11;;;;;;;5.00;3.50;;;;;;;18.59;65.27;99471.13;104115;275;38400;-74
2023/08/01 02:50:46;;;;;;;4.20;3.00;;;;;;;18.58;65.35;99468.02;104126;275;38236;-73
2023/08/01 02:53:22;;;;;;;4.40;2.90;;;;;;;18.57;65.55;99467.38;104111;275;39895;-72
2023/08/01 02:55:56;;;;;;;3.70;3.40;;;;;;;18.56;65.44;99465.34;103984;275;38818;-73
2023/08/01 02:58:33;;;;;;;3.10;2.80;;;;;;;18.55;65.61;99466.27;104073;275;38248;-73
2023/08/01 03:01:13;;;;;;;3.60;2.70;;;;;;;18.55;65.65;99459.55;104098;275;38841;-75
2023/08/01 03:03:47;;;;;;;4.40;2.90;;;;;;;18.56;65.78;99457.73;104127;275;38282;-75
2023/08/01 03:06:24;;;;;;;3.60;3.30;;;;;;;18.58;65.79;99451.55;104143;275;38396;-73
2023/08/01 03:09:00;;;;;;;4.00;3.00;;;;;;;18.61;65.71;99451.52;104109;275;38255;-72
2023/08/01 03:11:35;;;;;;;4.70;3.10;;;;;;;18.63;65.72;99447.31;104136;275;38282;-75
2023/08/01 03:14:11;;;;;;;5.10;3.00;;;;;;;18.64;65.59;99444.58;104114;275;39588;-74
2023/08/01 03:16:45;;;;;;;3.60;3.00;;;;;;;18.65;65.56;99441.77;104128;275;38393;-77
2023/08/01 03:19:22;;;;;;;3.60;2.90;;;;;;;18.66;65.45;99440.08;104151;275;39165;-75
2023/08/01 03:21:57;;;;;;;4.60;3.30;;;;;;;18.68;65.40;99436.39;104141;275;38757;-76
2023/08/01 03:24:31;;;;;;;6.50;3.10;;;;;;;18.70;65.34;99431.44;104151;275;38270;-75
2023/08/01 03:27:06;;;;;;;3.50;3.10;;;;;;;18.72;65.35;99433.80;104140;275;39648;-73
2023/08/01 03:29:44;;;;;;;3.90;2.70;;;;;;;18.74;65.20;99432.77;103979;275;39186;-74
2023/08/01 03:32:18;;;;;;;4.50;3.10;;;;;;;18.74;65.03;99426.39;104129;275;38261;-75
2023/08/01 03:34:54;;;;;;;4.30;3.10;;;;;;;18.75;65.03;99428.39;104163;275;38264;-75
2023/08/01 03:37:28;;;;;;;4.40;2.90;;;;;;;18.76;64.90;99422.64;103908;277;38295;-75
2023/08/01 03:40:02;;;;;;;5.00;3.10;;;;;;;18.77;64.84;99422.36;104072;275;39635;-73
2023/08/01 03:42:36;;;;;;;3.90;3.10;;;;;;;18.79;64.80;99422.02;103714;275;485780;-72
2023/08/01 03:45:12;;;;;;;4.00;2.80;;;;;;;18.82;64.79;99418.94;104094;264;38389;-75
2023/08/01 03:47:49;;;;;;;3.50;2.50;;;;;;;18.85;64.48;99413.36;104131;275;38424;-76
2023/08/01 03:50:29;;;;;;;7.50;3.10;;;;;;;18.88;64.44;99416.31;103887;277;174896;-74
2023/08/01 03:53:03;;;;;;;5.00;2.90;;;;;;;18.89;64.32;99411.77;104155;275;38390;-73
2023/08/01 03:55:43;;;;;;;6.00;3.10;;;;;;;18.91;64.23;99408.64;104005;275;38225;-74
2023/08/01 03:58:18;;;;;;;3.50;3.00;;;;;;;18.92;64.08;99403.63;104187;275;39616;-74
2023/08/01 04:00:53;;;;;;;4.20;3.00;;;;;;;18.92;64.28;99401.11;104147;275;38546;-72
2023/08/01 04:03:29;;;;;;;6.10;3.00;;;;;;;18.93;64.23;99403.36;104166;275;38238;-73
2023/08/01 04:06:03;;;;;;;5.00;2.70;;;;;;;18.96;64.03;99401.65;104215;275;39907;-73
2023/08/01 04:08:43;;;;;;;4.50;2.90;;;;;;;18.99;63.98;99398.57;104123;275;39908;-72
2023/08/01 04:11:19;;;;;;;4.20;3.10;;;;;;;19.02;64.03;99402.38;104148;275;38243;-74
2023/08/01 04:14:15;;;;;;;6.10;2.80;;;;;;;19.05;63.96;99405.44;104117;275;38261;-73
2023/08/01 04:16:50;;;;;;;6.30;2.80;;;;;;;19.08;63.95;99409.42;104060;275;171838;-73
2023/08/01 04:19:24;;;;;;;4.30;3.10;;;;;;;19.11;63.82;99407.55;103991;275;188894;-73
2023/08/01 04:21:58;;;;;;;4.70;3.20;;;;;;;19.14;63.76;99405.74;104008;277;39466;-72
2023/08/01 04:24:33;;;;;;;4.50;2.80;;;;;;;19.17;63.89;99402.64;103999;277;39440;-72
2023/08/01 04:27:10;;;;;;;4.70;3.10;;;;;;;19.20;63.73;99396.81;103977;275;38232;-74
2023/08/01 04:29:45;;;;;;;4.90;2.80;;;;;;;19.24;63.70;99388.69;103914;275;38547;-74
2023/08/01 04:32:19;;;;;;;5.20;2.70;;;;;;;19.32;63.57;99396.34;103980;276;38331;-74
2023/08/01 04:34:58;;;;;;;5.30;2.90;;;;;;;19.38;63.35;99395.59;103983;277;40195;-74
2023/08/01 04:37:36;;;;;;;2.90;2.40;;;;;;;19.43;63.40;99392.27;104104;275;39390;-73
2023/08/01 04:40:17;;;;;;;6.70;2.70;;;;;;;19.45;63.12;99386.97;104164;275;39838;-75
2023/08/01 04:42:54;;;;;;;5.20;3.10;;;;;;;19.46;62.94;99385.16;104163;275;38219;-75
2023/08/01 04:45:32;;;;;;;3.70;3.10;;;;;;;19.48;62.79;99381.23;104152;275;39805;-74
2023/08/01 04:48:08;;;;;;;4.30;2.70;;;;;;;19.53;62.89;99376.33;104153;275;38617;-74
2023/08/01 04:50:42;;;;;;;3.70;2.40;;;;;;;19.61;63.03;99378.71;104159;275;38376;-74
2023/08/01 04:53:18;;;;;;;4.50;2.50;;;;;;;19.72;63.02;99374.82;104101;275;38261;-73
2023/08/01 04:55:53;;;;;;;7.10;2.90;;;;;;;19.93;62.86;99377.98;104051;275;38461;-75
2023/08/01 04:58:31;;;;;;;4.20;2.50;;;;;;;20.17;62.27;99375.77;104098;275;38748;-75
2023/08/01 05:01:05;;;;;;;4.90;2.60;;;;;;;20.30;61.59;99374.21;104040;275;174541;-73
2023/08/01 05:03:39;;;;;;;3.90;2.80;;;;;;;20.38;61.08;99367.95;104118;275;38829;-73
2023/08/01 05:06:14;;;;;;;4.00;3.00;;;;;;;20.51;61.10;99366.89;104119;275;38271;-73
2023/08/01 05:08:49;;;;;;;5.00;2.40;;;;;;;20.79;61.28;99369.77;103932;275;39513;-73
2023/08/01 05:11:23;;;;;;;5.30;2.50;;;;;;;21.27;60.26;99364.89;103954;277;38221;-73
2023/08/01 05:13:59;;;;;;;3.90;2.40;;;;;;;21.58;59.43;99357.00;104098;275;38280;-73
2023/08/01 05:16:35;;;;;;;5.10;2.20;;;;;;;21.94;58.69;99355.83;104113;276;39388;-74
2023/08/01 05:19:11;;;;;;;5.40;2.20;;;;;;;22.11;57.74;99355.79;103956;277;38255;-74
2023/08/01 05:21:48;;;;;;;4.40;2.40;;;;;;;22.14;56.84;99357.42;104012;275;38291;-75
2023/08/01 05:24:26;;;;;;;5.20;2.30;;;;;;;22.09;56.35;99352.93;104118;275;39572;-75
2023/08/01 05:27:00;;;;;;;3.60;2.00;;;;;;;21.97;55.45;99349.38;104117;275;38305;-73
2023/08/01 05:29:37;;;;;;;4.20;2.40;;;;;;;21.84;55.74;99352.05;104047;275;40492;-74
2023/08/01 05:32:12;;;;;;;3.00;2.10;;;;;;;21.74;55.72;99349.71;104153;275;39376;-75
2023/08/01 05:34:47;;;;;;;3.50;2.30;;;;;;;21.67;56.10;99346.89;104209;275;38236;-75
2023/08/01 05:37:27;;;;;;;4.30;2.20;;;;;;;21.59;55.99;99343.91;104111;275;38394;-74
2023/08/01 05:40:04;;;;;;;5.10;2.20;;;;;;;21.52;55.90;99341.98;104145;264;38367;-75
2023/08/01 05:42:38;;;;;;;4.50;2.50;;;;;;;21.48;56.27;99342.98;104111;275;38244;-74
2023/08/01 05:45:15;;;;;;;4.40;2.60;;;;;;;21.46;56.37;99336.96;104058;275;38273;-74
2023/08/01 05:47:50;;;;;;;4.70;2.50;;;;;;;21.45;56.47;99334.70;104110;275;39043;-73
2023/08/01 05:50:25;;;;;;;4.20;2.60;;;;;;;21.49;56.46;99332.77;104149;275;39382;-76
2023/08/01 05:52:59;;;;;;;6.40;2.80;;;;;;;21.54;56.49;99332.55;104108;275;39926;-75
2023/08/01 05:55:33;;;;;;;4.60;2.10;;;;;;;21.59;56.14;99335.41;104129;275;38399;-73
2023/08/01 05:58:07;;;;;;;4.80;2.10;;;;;;;21.65;56.10;99336.13;104111;275;39956;-74
2023/08/01 06:00:44;;;;;;;4.20;2.40;;;;;;;21.70;55.99;99340.93;104169;275;38321;-73
2023/08/01 06:03:18;;;;;;;5.20;2.80;;;;;;;21.73;55.98;99336.17;104126;275;38524;-74
2023/08/01 06:05:55;;;;;;;6.10;2.10;;;;;;;21.76;55.93;99332.71;104132;275;38261;-76
2023/08/01 06:08:33;;;;;;;4.20;2.40;;;;;;;21.78;55.89;99331.96;104130;275;40157;-75
2023/08/01 06:11:12;;;;;;;4.60;2.40;;;;;;;21.84;56.15;99331.86;103954;277;38231;-74
2023/08/01 06:13:46;;;;;;;5.20;2.30;;;;;;;21.93;55.92;99328.65;104135;275;38251;-73
2023/08/01 06:16:21;;;;;;;6.40;2.90;;;;;;;22.10;55.62;99323.11;104158;275;38232;-74
2023/08/01 06:18:56;;;;;;;4.80;2.50;;;;;;;22.29;55.67;99320.11;104137;275;39430;-74
2023/08/01 06:21:36;;;;;;;4.90;2.30;;;;;;;22.45;55.27;99319.23;104163;275;38248;-76
2023/08/01 06:24:11;;;;;;;5.60;2.10;;;;;;;22.58;54.83;99315.86;104126;275;38859;-76
2023/08/01 06:26:47;;;;;;;3.90;2.30;;;;;;;22.67;54.39;99313.91;104147;275;38540;-73
2023/08/01 06:29:25;;;;;;;5.80;2.90;;;;;;;22.71;54.33;99312.77;104112;275;39618;-74
2023/08/01 06:31:59;;;;;;;4.00;2.30;;;;;;;22.72;53.37;99305.17;103905;277;38464;-78
2023/08/01 06:34:44;;;;;;;3.60;2.60;;;;;;;22.79;54.16;99303.20;104097;275;38626;-74
2023/08/01 06:37:18;;;;;;;4.30;2.30;;;;;;;22.92;53.87;99304.66;103994;275;174661;-74
2023/08/01 06:39:53;;;;;;;6.30;2.40;;;;;;;23.01;53.55;99300.66;104107;275;38773;-75
2023/08/01 06:42:29;;;;;;;4.80;2.70;;;;;;;23.06;53.05;99299.30;104093;275;38264;-73
2023/08/01 06:45:03;;;;;;;7.30;2.90;;;;;;;23.10;53.40;99297.00;104137;268;38277;-73
2023/08/01 06:47:40;;;;;;;5.50;3.00;;;;;;;23.16;52.96;99293.91;104111;275;39651;-73
2023/08/01 06:50:25;;;;;;;5.20;2.10;;;;;;;23.18;52.93;99293.66;103916;275;38346;-73
2023/08/01 06:53:00;;;;;;;3.90;2.40;;;;;;;23.18;52.65;99289.63;103911;275;38707;-74
2023/08/01 06:55:35;;;;;;;6.60;3.00;;;;;;;23.22;52.53;99288.48;104160;275;38335;-73
2023/08/01 06:58:10;;;;;;;4.00;2.40;;;;;;;23.30;52.79;99275.83;104122;275;38458;-74
2023/08/01 07:00:46;;;;;;;3.80;2.50;;;;;;;23.45;52.85;99280.23;104176;275;39448;-74
2023/08/01 07:03:20;;;;;;;3.30;2.10;;;;;;;23.59;52.05;99276.80;103914;275;38365;-73
2023/08/01 07:05:55;;;;;;;4.40;2.50;;;;;;;23.67;51.81;99279.45;104171;275;38679;-74
2023/08/01 07:08:33;;;;;;;4.30;2.40;;;;;;;23.78;51.92;99275.39;103960;275;38223;-73
2023/08/01 07:11:10;;;;;;;4.30;2.30;;;;;;;23.89;51.31;99279.20;104171;275;38388;-76
2023/08/01 07:13:47;;;;;;;3.70;2.10;;;;;;;23.95;51.38;99274.02;104121;275;38531;-76
2023/08/01 07:16:22;;;;;;;4.30;2.20;;;;;;;24.04;51.23;99273.42;104156;275;38779;-77
2023/08/01 07:18:58;;;;;;;3.80;2.10;;;;;;;24.12;51.15;99269.98;104099;275;38503;-76
2023/08/01 07:21:33;;;;;;;4.30;2.20;;;;;;;24.15;50.37;99265.42;104136;275;38221;-75
2023/08/01 07:24:07;;;;;;;4.30;2.30;;;;;;;24.20;50.41;99262.68;103978;275;171949;-75
2023/08/01 07:26:42;;;;;;;4.30;2.70;;;;;;;24.32;50.54;99263.27;104154;275;38664;-76
2023/08/01 07:29:19;;;;;;;4.10;2.30;;;;;;;24.53;50.96;99259.23;104111;275;38239;-76
2023/08/01 07:31:56;;;;;;;6.20;2.60;;;;;;;24.77;50.33;99257.47;103938;275;38226;-74
2023/08/01 07:34:30;;;;;;;5.40;3.30;;;;;;;24.95;49.95;99260.42;104107;275;38368;-74
2023/08/01 07:37:05;;;;;;;6.00;2.20;;;;;;;25.05;49.23;99258.84;104164;275;40127;-74
2023/08/01 07:39:41;;;;;;;4.60;2.30;;;;;;;25.10;49.24;99254.19;104141;275;38999;-74
2023/08/01 07:42:20;;;;;;;3.00;2.30;;;;;;;25.10;48.84;99248.36;104161;275;39945;-76
2023/08/01 07:45:02;;;;;;;16.70;2.70;;;;;;;24.99;47.88;99250.85;103938;275;38720;-75
2023/08/01 07:47:39;;;;;;;5.20;2.40;;;;;;;24.82;48.11;99246.19;104172;275;38268;-74
2023/08/01 07:50:16;;;;;;;4.00;2.40;;;;;;;24.70;48.66;99239.78;104196;275;38218;-75
2023/08/01 07:52:50;;;;;;;5.60;2.10;;;;;;;24.58;48.90;99242.48;104109;275;38272;-74
2023/08/01 07:55:26;;;;;;;5.60;2.00;;;;;;;24.52;48.97;99239.52;103748;279;174645;-73
2023/08/01 07:58:03;;;;;;;4.40;2.30;;;;;;;24.49;49.45;99240.04;104100;275;38914;-74
2023/08/01 08:00:38;;;;;;;4.40;2.30;;;;;;;24.50;49.62;99236.68;104012;275;174613;-75
2023/08/01 08:03:12;;;;;;;4.50;1.90;;;;;;;24.52;49.63;99232.18;103947;277;39694;-75
2023/08/01 08:05:49;;;;;;;3.50;2.20;;;;;;;24.54;49.63;99233.02;104160;275;39408;-75
2023/08/01 08:08:26;;;;;;;3.80;2.40;;;;;;;24.57;49.41;99233.06;104139;275;40529;-75
2023/08/01 08:11:01;;;;;;;6.20;2.50;;;;;;;24.59;49.42;99231.93;104141;275;39427;-75
2023/08/01 08:13:35;;;;;;;2.80;2.10;;;;;;;24.62;49.30;99223.84;104086;275;38727;-75
2023/08/01 08:16:12;;;;;;;5.70;2.50;;;;;;;24.64;49.10;99220.13;103990;275;39416;-74
2023/08/01 08:18:48;;;;;;;2.40;2.10;;;;;;;24.69;49.57;99225.01;104098;275;38384;-74
2023/08/01 08:21:28;;;;;;;3.80;1.90;;;;;;;24.77;49.50;99218.09;104139;275;38476;-73
2023/08/01 08:24:02;;;;;;;3.30;2.10;;;;;;;24.78;49.33;99216.35;104138;275;38338;-74
2023/08/01 08:26:39;;;;;;;3.70;2.50;;;;;;;24.74;49.25;99218.41;104182;275;38597;-74
2023/08/01 08:29:14;;;;;;;4.20;2.20;;;;;;;24.62;48.95;99217.69;104128;275;39415;-74
2023/08/01 08:31:52;;;;;;;4.50;2.20;;;;;;;24.52;49.32;99212.23;104212;275;38224;-75
2023/08/01 08:34:26;;;;;;;;;;;;;;;24.45;49.41;99212.11;104004;275;38273;-76
2023/08/01 08:37:02;;;;;;;4.00;2.30;;;;;;;24.37;49.42;99213.05;104153;275;39394;-76
2023/08/01 08:39:39;;;;;;;4.00;2.00;;;;;;;24.38;49.90;99212.41;104179;275;38375;-75
2023/08/01 08:42:17;;;;;;;4.30;2.40;;;;;;;24.44;50.87;99212.05;104148;275;39538;-75
2023/08/01 08:44:56;;;;;;;4.40;2.70;;;;;;;24.49;50.96;99217.54;104144;275;38725;-75
2023/08/01 08:47:32;;;;;;;3.20;2.50;;;;;;;24.48;50.40;99214.33;103985;275;38262;-77
2023/08/01 08:50:07;;;;;;;4.10;2.10;;;;;;;24.46;50.32;99211.63;104175;275;38321;-77
2023/08/01 08:52:42;;;;;;;3.20;2.70;;;;;;;24.43;50.13;99209.61;104148;275;39406;-77
2023/08/01 08:55:21;;;;;;;4.40;2.10;;;;;;;24.41;50.26;99208.62;104122;275;38288;-75
2023/08/01 08:57:59;;;;;;;3.10;2.10;;;;;;;24.35;50.13;99208.20;104181;275;39676;-74
2023/08/01 09:00:34;;;;;;;2.80;2.00;;;;;;;24.30;50.17;99203.27;104172;275;38259;-75
2023/08/01 09:03:08;;;;;;;3.90;2.10;;;;;;;24.24;50.28;99205.27;104144;275;38275;-75
2023/08/01 09:05:51;;;;;;;4.50;2.50;;;;;;;24.19;50.28;99198.64;104050;276;39392;-74
2023/08/01 09:08:25;;;;;;;5.40;2.50;;;;;;;24.18;50.66;99194.67;104158;275;38279;-74
2023/08/01 09:11:02;;;;;;;3.30;2.20;;;;;;;24.20;50.66;99189.95;104172;275;38304;-74
2023/08/01 09:13:36;;;;;;;4.00;2.40;;;;;;;24.23;50.46;99184.69;104168;275;39533;-74
2023/08/01 09:16:13;;;;;;;4.70;2.20;;;;;;;24.27;50.71;99179.74;104204;275;39667;-74
2023/08/01 09:18:57;;;;;;;3.70;2.70;;;;;;;24.35;50.80;99176.48;104123;275;38830;-73
2023/08/01 09:21:40;;;;;;;3.90;2.60;;;;;;;24.44;50.86;99173.70;104023;275;38962;-73
2023/08/01 09:24:17;;;;;;;3.40;2.40;;;;;;;24.54;50.47;99171.84;104178;275;39791;-73
2023/08/01 09:27:02;;;;;;;3.50;2.20;;;;;;;24.65;50.51;99162.61;104072;275;39496;-76
2023/08/01 09:29:40;;;;;;;3.20;2.30;;;;;;;24.77;50.21;99168.84;104156;275;38394;-75
2023/08/01 09:32:18;;;;;;;2.70;2.40;;;;;;;24.81;49.56;99162.44;104123;275;38401;-76
2023/08/01 09:35:04;;;;;;;3.70;2.50;;;;;;;24.85;49.60;99161.69;104175;275;38397;-75
2023/08/01 09:37:46;;;;;;;4.20;2.40;;;;;;;24.88;49.92;99163.20;104179;275;39911;-75
2023/08/01 09:40:20;;;;;;;6.80;2.50;;;;;;;24.93;50.04;99166.45;104154;275;38431;-74
2023/08/01 09:42:55;;;;;;;4.30;2.70;;;;;;;25.00;50.21;99167.95;104032;275;38427;-74
2023/08/01 09:45:31;;;;;;;4.50;2.20;;;;;;;25.07;50.25;99166.90;104147;275;38362;-75
2023/08/01 09:48:06;;;;;;;5.20;2.30;;;;;;;25.18;50.44;99165.83;104101;275;38356;-76
2023/08/01 09:50:40;;;;;;;6.10;2.40;;;;;;;25.27;50.46;99165.52;104143;275;38666;-75
2023/08/01 09:53:19;;;;;;;5.20;2.70;;;;;;;25.35;50.45;99163.43;104126;275;38825;-74
2023/08/01 09:55:53;;;;;;;7.30;2.80;;;;;;;25.42;49.84;99167.27;104203;275;38418;-77
2023/08/01 09:58:27;;;;;;;4.40;2.50;;;;;;;25.41;49.39;99163.59;104147;275;39382;-78
2023/08/01 10:01:06;;;;;;;5.80;2.50;;;;;;;25.42;49.10;99158.94;104164;275;39788;-75
2023/08/01 10:03:41;;;;;;;4.80;2.70;;;;;;;25.39;48.81;99161.16;104155;275;39631;-75
2023/08/01 10:06:20;;;;;;;9.30;3.10;;;;;;;25.34;49.30;99161.27;104165;275;38233;-76
2023/08/01 10:08:55;;;;;;;4.60;2.40;;;;;;;25.25;49.26;99163.41;104059;275;38484;-75
2023/08/01 10:11:31;;;;;;;5.50;2.40;;;;;;;25.17;49.74;99169.34;104175;275;38803;-75
2023/08/01 10:14:07;;;;;;;5.30;2.40;;;;;;;25.11;50.29;99168.86;104174;275;39823;-75
2023/08/01 10:16:46;;;;;;;5.10;2.70;;;;;;;25.01;50.77;99170.86;104171;275;39369;-77
2023/08/01 10:19:21;;;;;;;3.50;2.80;;;;;;;24.88;51.70;99172.36;104043;275;38268;-76
2023/08/01 10:21:57;;;;;;;5.00;3.00;;;;;;;24.77;52.20;99175.30;104152;275;39421;-76
2023/08/01 10:24:32;;;;;;;5.10;3.00;;;;;;;24.56;52.32;99180.19;104136;275;38136;-75
2023/08/01 10:27:16;;;;;;;4.20;3.20;;;;;;;24.40;53.06;99178.30;104204;275;39641;-77
2023/08/01 10:30:01;;;;;;;4.10;3.10;;;;;;;24.25;53.95;99179.80;104171;275;38415;-75
2023/08/01 10:32:49;;;;;;;4.70;2.60;;;;;;;24.11;54.63;99184.64;104142;275;39385;-74
2023/08/01 10:35:34;;;;;;;3.90;2.70;;;;;;;23.93;55.35;99183.98;104154;275;39950;-76
2023/08/01 10:38:14;;;;;;;3.80;2.80;;;;;;;23.77;55.99;99180.99;103947;276;38498;-77
2023/08/01 10:40:48;;;;;;;4.70;2.90;;;;;;;23.63;56.88;99177.52;104036;275;38764;-75
2023/08/01 10:43:26;;;;;;;4.50;2.80;;;;;;;23.51;57.34;99174.59;104165;275;38264;-73
2023/08/01 10:46:11;;;;;;;3.60;3.20;;;;;;;23.44;58.18;99173.91;104219;275;38517;-74
2023/08/01 10:48:59;;;;;;;4.10;3.30;;;;;;;23.36;58.94;99168.25;104172;275;38803;-75
2023/08/01 10:51:40;;;;;;;4.00;3.00;;;;;;;23.27;59.67;99166.92;104174;275;39517;-77
2023/08/01 10:54:24;;;;;;;3.30;2.60;;;;;;;23.21;59.64;99165.60;104106;275;38249;-75
2023/08/01 10:57:00;;;;;;;6.40;3.20;;;;;;;23.14;59.72;99165.48;104153;275;39529;-76
2023/08/01 10:59:34;;;;;;;3.90;3.10;;;;;;;23.08;60.47;99162.27;104118;275;39821;-76
2023/08/01 11:02:11;;;;;;;6.40;3.00;;;;;;;23.06;61.31;99162.94;104049;275;38280;-76
2023/08/01 11:04:56;;;;;;;5.00;3.40;;;;;;;23.06;61.93;99160.91;104195;275;38311;-75
2023/08/01 11:07:31;;;;;;;3.90;2.80;;;;;;;22.99;62.46;99162.25;104121;275;38259;-75
2023/08/01 11:10:15;;;;;;;5.70;3.10;;;;;;;22.98;62.75;99160.55;104152;275;38355;-76
2023/08/01 11:12:48;;;;;;;4.70;2.70;;;;;;;23.00;63.56;99164.91;104000;275;38448;-75
2023/08/01 11:15:25;;;;;;;6.70;3.60;;;;;;;23.03;63.29;99155.80;104158;275;39553;-75
2023/08/01 11:18:00;;;;;;;5.40;3.00;;;;;;;23.09;63.43;99156.39;104130;275;38286;-74
2023/08/01 11:20:34;;;;;;;7.20;3.00;;;;;;;23.15;63.93;99153.23;104198;275;38569;-76
2023/08/01 11:23:13;;;;;;;5.20;3.50;;;;;;;23.20;64.05;99153.26;104107;274;39217;-75
2023/08/01 11:25:51;;;;;;;4.10;3.10;;;;;;;23.30;64.43;99151.67;104171;275;38243;-76
2023/08/01 11:28:26;;;;;;;3.30;2.70;;;;;;;23.38;64.63;99151.80;104163;275;38249;-74
2023/08/01 11:31:00;;;;;;;3.50;2.80;;;;;;;23.43;64.18;99151.98;104061;276;38396;-72
2023/08/01 11:33:34;;;;;;;4.60;2.90;;;;;;;23.47;64.05;99151.98;104119;275;39375;-71
2023/08/01 11:36:10;;;;;;;3.50;2.60;;;;;;;23.54;64.50;99151.66;104149;275;38236;-72
2023/08/01 11:38:45;;;;;;;3.70;2.90;;;;;;;23.62;63.85;99149.33;104169;275;38261;-72
2023/08/01 11:41:21;;;;;;;5.30;3.00;;;;;;;23.66;63.34;99150.85;104176;275;40425;-73
2023/08/01 11:43:56;;;;;;;3.40;2.80;;;;;;;23.69;62.94;99147.70;103622;275;706594;-74
2023/08/01 11:46:36;;;;;;;3.40;2.90;;;;;;;23.70;62.93;99145.14;104151;275;38717;-74
2023/08/01 11:49:16;;;;;;;4.60;3.10;;;;;;;23.76;62.99;99142.94;104042;277;38535;-72
2023/08/01 11:51:50;;;;;;;3.40;3.00;;;;;;;23.82;62.59;99137.14;104025;275;174643;-71
2023/08/01 11:54:28;;;;;;;3.80;2.80;;;;;;;23.83;62.35;99132.92;104126;275;38440;-71
2023/08/01 11:57:06;;;;;;;5.10;3.10;;;;;;;23.82;61.76;99129.66;104167;275;38653;-74
2023/08/01 11:59:50;;;;;;;4.70;3.30;;;;;;;23.78;61.02;99126.67;104143;275;38806;-73
2023/08/01 12:02:31;;;;;;;4.00;2.60;;;;;;;23.75;61.59;99117.17;104057;275;40366;-74
2023/08/01 12:05:07;;;;;;;4.80;2.90;;;;;;;23.75;61.77;99115.48;104159;275;38459;-73
2023/08/01 12:07:41;;;;;;;4.40;3.00;;;;;;;23.76;61.29;99110.89;104064;275;187859;-73
2023/08/01 12:10:15;;;;;;;4.10;3.00;;;;;;;23.75;61.09;99104.45;104172;275;39897;-75
2023/08/01 12:12:50;;;;;;;3.90;3.20;;;;;;;23.74;60.99;99100.52;104141;275;38226;-73
2023/08/01 12:15:27;;;;;;;4.20;3.00;;;;;;;23.72;61.12;99097.02;104203;275;39598;-73
2023/08/01 12:18:01;;;;;;;3.40;3.00;;;;;;;23.68;61.11;99087.98;104180;275;39543;-73